createdAt,value
2018-04-24T00:00:55.521Z,3.50
2018-04-24T00:03:23.206Z,5.70
2018-04-24T00:05:50.905Z,5.37
2018-04-24T00:08:18.588Z,5.40
2018-04-24T00:10:47.019Z,4.73
2018-04-24T00:13:14.704Z,4.53
2018-04-24T00:15:42.383Z,4.43
2018-04-24T00:18:10.105Z,6.33
2018-04-24T00:20:37.751Z,4.87
2018-04-24T00:23:05.400Z,4.50
2018-04-24T00:25:33.102Z,4.83
2018-04-24T00:28:00.692Z,3.97
2018-04-24T00:30:29.096Z,4.97
2018-04-24T00:32:57.558Z,4.97
2018-04-24T00:35:26.988Z,4.07
2018-04-24T00:37:54.566Z,5.00
2018-04-24T00:40:22.238Z,6.60
2018-04-24T00:42:50.664Z,5.67
2018-04-24T00:45:18.348Z,5.70
2018-04-24T00:47:46.014Z,4.87
2018-04-24T00:50:13.678Z,6.20
2018-04-24T00:52:41.328Z,5.33
2018-04-24T00:55:09.028Z,5.73
2018-04-24T00:57:37.481Z,4.30
2018-04-24T01:00:05.227Z,6.43
2018-04-24T01:02:32.911Z,6.83
2018-04-24T01:05:02.345Z,4.40
2018-04-24T01:07:30.776Z,6.10
2018-04-24T01:09:58.427Z,5.07
2018-04-24T01:12:26.057Z,6.03
2018-04-24T01:14:53.739Z,6.27
2018-04-24T01:17:21.364Z,4.33
2018-04-24T01:19:49.848Z,5.47
2018-04-24T01:22:17.558Z,8.00
2018-04-24T01:24:45.214Z,6.47
2018-04-24T01:27:16.146Z,7.77
2018-04-24T01:29:43.736Z,5.87
2018-04-24T01:32:12.210Z,6.60
2018-04-24T01:34:39.910Z,6.70
2018-04-24T01:37:07.636Z,6.93
2018-04-24T01:39:35.348Z,11.77
2018-04-24T01:42:03.044Z,7.20
2018-04-24T01:44:30.731Z,6.43
2018-04-24T01:46:59.288Z,5.67
2018-04-24T01:49:26.964Z,9.67
2018-04-24T01:51:54.962Z,5.63
2018-04-24T01:54:22.698Z,6.37
2018-04-24T01:56:50.297Z,4.77
2018-04-24T01:59:17.952Z,6.90
2018-04-24T02:01:46.522Z,5.97
2018-04-24T02:04:14.289Z,6.47
2018-04-24T02:06:41.953Z,7.63
2018-04-24T02:09:09.643Z,4.87
2018-04-24T02:11:37.492Z,7.53
2018-04-24T02:14:06.151Z,7.80
2018-04-24T02:16:33.774Z,5.80
2018-04-24T02:19:01.452Z,7.10
2018-04-24T02:21:29.078Z,6.73
2018-04-24T02:23:56.833Z,7.73
2018-04-24T02:26:24.535Z,5.63
2018-04-24T02:28:52.266Z,7.47
2018-04-24T02:31:19.920Z,5.60
2018-04-24T02:33:47.578Z,6.97
2018-04-24T02:36:15.285Z,5.53
2018-04-24T02:38:43.700Z,7.07
2018-04-24T02:41:11.435Z,7.37
2018-04-24T02:43:39.093Z,6.13
2018-04-24T02:46:07.524Z,5.23
2018-04-24T02:48:35.264Z,6.70
2018-04-24T02:51:02.936Z,5.40
2018-04-24T02:53:30.560Z,7.30
2018-04-24T02:55:59.082Z,7.87
2018-04-24T02:58:26.750Z,7.37
2018-04-24T03:00:54.409Z,6.97
2018-04-24T03:03:22.139Z,9.97
2018-04-24T03:05:49.806Z,5.83
2018-04-24T03:08:17.511Z,8.07
2018-04-24T03:10:45.162Z,11.23
2018-04-24T03:13:12.995Z,5.97
2018-04-24T03:15:40.620Z,7.63
2018-04-24T03:18:08.398Z,7.17
2018-04-24T03:20:36.142Z,7.13
2018-04-24T03:23:03.823Z,8.17
2018-04-24T03:25:31.504Z,9.00
2018-04-24T03:27:59.152Z,7.03
2018-04-24T03:30:26.820Z,7.10
2018-04-24T03:32:54.457Z,6.60
2018-04-24T03:35:22.121Z,9.13
2018-04-24T03:37:49.827Z,5.73
2018-04-24T03:40:18.283Z,10.10
2018-04-24T03:42:45.907Z,9.13
2018-04-24T03:45:14.301Z,7.60
2018-04-24T03:47:41.997Z,7.70
2018-04-24T03:50:09.641Z,8.00
2018-04-24T03:52:37.232Z,8.63
2018-04-24T03:55:04.943Z,9.53
2018-04-24T03:57:32.605Z,9.47
2018-04-24T04:00:00.231Z,8.77
2018-04-24T04:02:28.661Z,9.63
2018-04-24T04:04:56.283Z,8.43
2018-04-24T04:07:24.013Z,11.40
2018-04-24T04:09:51.615Z,7.57
2018-04-24T04:12:19.291Z,10.53
2018-04-24T04:14:47.691Z,9.80
2018-04-24T04:20:26.789Z,11.33
2018-04-24T04:23:06.169Z,10.80
2018-04-24T04:25:33.738Z,8.40
2018-04-24T04:28:01.413Z,12.00
2018-04-24T04:30:29.079Z,7.50
2018-04-24T04:32:56.805Z,11.50
2018-04-24T04:35:25.263Z,9.80
2018-04-24T04:37:53.836Z,10.77
2018-04-24T04:40:21.477Z,8.73
2018-04-24T04:42:49.599Z,10.77
2018-04-24T04:47:49.745Z,10.03
2018-04-24T04:50:17.296Z,9.63
2018-04-24T04:52:45.796Z,7.57
2018-04-24T04:55:14.260Z,8.37
2018-04-24T04:57:41.901Z,13.00
2018-04-24T05:00:12.884Z,12.47
2018-04-24T05:02:41.373Z,12.37
2018-04-24T05:05:09.024Z,13.00
2018-04-24T05:07:37.512Z,16.37
2018-04-24T05:10:05.908Z,13.53
2018-04-24T05:12:34.468Z,16.30
2018-04-24T05:15:03.391Z,14.47
2018-04-24T05:17:31.119Z,16.50
2018-04-24T05:19:58.854Z,19.80
2018-04-24T05:22:27.406Z,18.07
2018-04-24T05:24:55.020Z,17.47
2018-04-24T05:27:22.667Z,15.07
2018-04-24T05:29:50.325Z,16.90
2018-04-24T05:32:18.038Z,21.77
2018-04-24T05:34:45.712Z,19.87
2018-04-24T05:37:13.357Z,21.60
2018-04-24T05:39:41.101Z,24.87
2018-04-24T05:42:09.513Z,19.63
2018-04-24T05:44:37.320Z,22.80
2018-04-24T05:47:04.926Z,18.97
2018-04-24T05:49:33.452Z,17.93
2018-04-24T05:52:01.198Z,26.47
2018-04-24T05:54:28.916Z,21.13
2018-04-24T05:56:57.353Z,18.10
2018-04-24T05:59:25.039Z,23.27
2018-04-24T06:01:52.670Z,21.87
2018-04-24T06:04:20.271Z,19.47
2018-04-24T06:06:47.959Z,23.87
2018-04-24T06:09:15.535Z,24.97
2018-04-24T06:11:43.222Z,23.07
2018-04-24T06:14:10.885Z,27.27
2018-04-24T06:16:39.717Z,23.03
2018-04-24T06:19:07.351Z,29.60
2018-04-24T06:21:35.075Z,28.80
2018-04-24T06:24:02.785Z,28.23
2018-04-24T06:26:30.443Z,27.90
2018-04-24T06:28:58.139Z,24.20
2018-04-24T06:31:26.591Z,25.07
2018-04-24T06:33:55.019Z,27.77
2018-04-24T06:36:22.676Z,29.77
2018-04-24T06:38:50.374Z,27.03
2018-04-24T06:41:18.048Z,28.77
2018-04-24T06:43:45.721Z,29.27
2018-04-24T06:46:14.114Z,28.87
2018-04-24T06:48:42.342Z,31.27
2018-04-24T06:51:10.756Z,29.47
2018-04-24T06:53:38.390Z,29.50
2018-04-24T06:56:05.989Z,34.47
2018-04-24T06:58:33.745Z,30.00
2018-04-24T07:01:01.400Z,27.30
2018-04-24T07:03:29.047Z,28.20
2018-04-24T07:05:56.682Z,25.10
2018-04-24T07:08:24.286Z,29.53
2018-04-24T07:10:51.946Z,26.73
2018-04-24T07:13:19.689Z,27.30
2018-04-24T07:15:47.391Z,23.87
2018-04-24T07:18:15.054Z,22.13
2018-04-24T07:20:42.682Z,22.53
2018-04-24T07:23:10.372Z,23.60
2018-04-24T07:25:38.014Z,17.17
2018-04-24T07:28:05.666Z,24.90
2018-04-24T07:30:33.417Z,23.77
2018-04-24T07:33:01.173Z,19.23
2018-04-24T07:35:32.368Z,20.90
2018-04-24T07:38:00.020Z,18.93
2018-04-24T07:40:27.688Z,18.53
2018-04-24T07:42:55.450Z,20.77
2018-04-24T07:45:23.113Z,19.73
2018-04-24T07:47:50.768Z,19.07
2018-04-24T07:50:18.590Z,18.10
2018-04-24T07:52:46.151Z,16.07
2018-04-24T07:55:13.807Z,16.77
2018-04-24T07:57:41.587Z,13.87
2018-04-24T08:00:09.335Z,16.13
2018-04-24T08:02:37.021Z,17.43
2018-04-24T08:05:04.608Z,19.83
2018-04-24T08:07:32.343Z,13.23
2018-04-24T08:10:00.735Z,18.43
2018-04-24T08:12:29.785Z,15.10
2018-04-24T08:14:58.247Z,13.50
2018-04-24T08:17:26.647Z,12.00
2018-04-24T08:19:54.301Z,10.87
2018-04-24T08:22:22.755Z,12.13
2018-04-24T08:24:50.391Z,11.90
2018-04-24T08:27:18.074Z,10.30
2018-04-24T08:29:45.731Z,10.47
2018-04-24T08:32:13.378Z,12.20
2018-04-24T08:34:41.075Z,10.63
2018-04-24T08:37:08.721Z,10.63
2018-04-24T08:39:36.368Z,8.93
2018-04-24T08:42:03.946Z,9.50
2018-04-24T08:44:31.614Z,8.33
2018-04-24T08:46:59.227Z,9.13
2018-04-24T08:49:26.908Z,8.83
2018-04-24T08:51:54.493Z,11.13
2018-04-24T08:54:22.133Z,10.00
2018-04-24T08:56:49.812Z,11.17
2018-04-24T08:59:18.064Z,10.90
2018-04-24T09:01:48.748Z,9.20
2018-04-24T09:04:16.451Z,10.40
2018-04-24T09:06:44.110Z,9.40
2018-04-24T09:09:12.357Z,12.27
2018-04-24T09:11:40.063Z,10.47
2018-04-24T09:14:07.772Z,12.60
2018-04-24T09:16:41.518Z,10.30
2018-04-24T09:19:09.256Z,11.77
2018-04-24T09:21:37.660Z,13.47
2018-04-24T09:24:09.049Z,10.03
2018-04-24T09:26:36.748Z,12.60
2018-04-24T09:29:04.427Z,11.40
2018-04-24T09:31:37.576Z,11.63
2018-04-24T09:34:05.198Z,11.07
2018-04-24T09:36:34.010Z,12.17
2018-04-24T09:39:01.676Z,11.10
2018-04-24T09:41:30.040Z,15.00
2018-04-24T09:43:57.679Z,13.43
2018-04-24T09:46:25.966Z,12.00
2018-04-24T09:48:53.681Z,14.60
2018-04-24T09:51:21.393Z,13.43
2018-04-24T09:53:48.999Z,12.77
2018-04-24T09:56:17.949Z,13.67
2018-04-24T09:58:45.660Z,12.53
2018-04-24T10:01:13.349Z,12.53
2018-04-24T10:03:41.095Z,11.60
2018-04-24T10:06:08.792Z,13.27
2018-04-24T10:08:44.097Z,12.07
2018-04-24T10:11:12.568Z,12.83
2018-04-24T10:13:40.412Z,11.60
2018-04-24T10:16:08.014Z,11.10
2018-04-24T10:18:35.773Z,12.67
2018-04-24T10:21:04.189Z,11.20
2018-04-24T10:23:31.831Z,12.53
2018-04-24T10:25:59.455Z,12.07
2018-04-24T10:28:27.128Z,13.83
2018-04-24T10:30:54.889Z,13.23
2018-04-24T10:33:27.215Z,13.90
2018-04-24T10:35:55.729Z,13.27
2018-04-24T10:38:23.365Z,15.47
2018-04-24T10:40:51.773Z,15.37
2018-04-24T10:43:19.426Z,12.87
2018-04-24T10:45:48.218Z,13.00
2018-04-24T10:48:15.838Z,14.97
2018-04-24T10:50:44.943Z,16.20
2018-04-24T10:53:12.527Z,17.17
2018-04-24T10:55:40.091Z,17.00
2018-04-24T10:58:08.466Z,19.40
2018-04-24T11:00:36.076Z,19.87
2018-04-24T11:03:03.658Z,17.20
2018-04-24T11:05:32.073Z,15.37
2018-04-24T11:07:59.655Z,13.20
2018-04-24T11:10:27.294Z,10.13
2018-04-24T11:12:54.936Z,8.30
2018-04-24T11:15:22.508Z,7.40
2018-04-24T11:17:50.049Z,8.00
2018-04-24T11:20:17.674Z,7.37
2018-04-24T11:22:45.330Z,8.53
2018-04-24T11:25:12.880Z,11.07
2018-04-24T11:27:40.802Z,10.50
2018-04-24T11:30:08.431Z,10.83
2018-04-24T11:32:35.985Z,9.47
2018-04-24T11:35:03.589Z,11.80
2018-04-24T11:37:31.990Z,7.90
2018-04-24T11:40:00.380Z,8.37
2018-04-24T11:42:27.936Z,9.03
2018-04-24T11:44:56.489Z,7.73
2018-04-24T11:47:24.056Z,9.53
2018-04-24T11:49:53.105Z,9.37
2018-04-24T11:52:20.670Z,8.80
2018-04-24T11:54:48.285Z,6.53
2018-04-24T11:57:16.591Z,5.60
2018-04-24T11:59:44.199Z,7.33
2018-04-24T12:02:11.773Z,6.43
2018-04-24T12:04:39.372Z,6.43
2018-04-24T12:07:06.963Z,6.60
2018-04-24T12:09:34.535Z,6.97
2018-04-24T12:12:02.911Z,6.50
2018-04-24T12:14:30.575Z,8.97
2018-04-24T12:16:58.123Z,7.70
2018-04-24T12:19:25.695Z,8.20
2018-04-24T12:21:53.305Z,8.57
2018-04-24T12:24:20.932Z,7.53
2018-04-24T12:26:48.485Z,7.20
2018-04-24T12:29:16.066Z,6.40
2018-04-24T12:31:44.445Z,7.57
2018-04-24T12:34:12.186Z,6.37
2018-04-24T12:36:39.776Z,7.50
2018-04-24T12:39:07.368Z,9.50
2018-04-24T12:41:35.695Z,9.57
2018-04-24T12:44:03.324Z,8.50
2018-04-24T12:46:30.958Z,8.43
2018-04-24T12:48:58.540Z,8.43
2018-04-24T12:51:26.128Z,8.47
2018-04-24T12:53:53.693Z,8.40
2018-04-24T12:56:22.479Z,8.43
2018-04-24T12:58:50.066Z,9.17
2018-04-24T13:01:17.653Z,9.10
2018-04-24T13:03:46.217Z,8.03
2018-04-24T13:06:13.827Z,6.93
2018-04-24T13:08:41.396Z,6.87
2018-04-24T13:11:08.954Z,6.47
2018-04-24T13:13:36.542Z,6.67
2018-04-24T13:16:04.187Z,7.57
2018-04-24T13:18:31.732Z,6.00
2018-04-24T13:20:59.312Z,6.03
2018-04-24T13:23:26.840Z,6.37
2018-04-24T13:25:54.441Z,5.70
2018-04-24T13:28:22.009Z,5.43
2018-04-24T13:30:49.550Z,6.37
2018-04-24T13:33:17.176Z,6.27
2018-04-24T13:35:44.780Z,5.97
2018-04-24T13:38:12.326Z,7.93
2018-04-24T13:40:44.129Z,6.70
2018-04-24T13:43:11.809Z,5.87
2018-04-24T13:45:39.414Z,6.47
2018-04-24T13:48:07.044Z,6.77
2018-04-24T13:50:34.623Z,6.00
2018-04-24T13:53:03.014Z,7.63
2018-04-24T13:55:30.785Z,6.07
2018-04-24T13:57:58.358Z,6.03
2018-04-24T14:00:25.953Z,11.20
2018-04-24T14:02:55.224Z,7.33
2018-04-24T14:05:22.805Z,8.07
2018-04-24T14:07:50.443Z,7.73
2018-04-24T14:10:18.031Z,5.87
2018-04-24T14:12:45.637Z,6.53
2018-04-24T14:15:13.988Z,7.00
2018-04-24T14:17:41.541Z,5.53
2018-04-24T14:20:09.154Z,8.67
2018-04-24T14:22:36.775Z,5.47
2018-04-24T14:25:04.701Z,5.03
2018-04-24T14:27:32.253Z,7.27
2018-04-24T14:29:59.880Z,5.27
2018-04-24T14:32:27.506Z,7.40
2018-04-24T14:34:55.072Z,8.00
2018-04-24T14:37:22.707Z,6.80
2018-04-24T14:39:50.319Z,9.00
2018-04-24T14:42:22.667Z,8.00
2018-04-24T14:44:50.270Z,9.20
2018-04-24T14:47:17.899Z,7.07
2018-04-24T14:49:45.477Z,5.83
2018-04-24T14:52:13.125Z,5.57
2018-04-24T14:54:40.691Z,6.53
2018-04-24T14:57:08.349Z,7.33
2018-04-24T14:59:35.901Z,8.27
2018-04-24T15:02:03.503Z,7.70
2018-04-24T15:04:31.869Z,7.30
2018-04-24T15:06:59.499Z,9.07
2018-04-24T15:09:27.113Z,6.73
2018-04-24T15:11:54.716Z,8.83
2018-04-24T15:14:22.303Z,7.30
2018-04-24T15:16:49.900Z,5.33
2018-04-24T15:19:18.276Z,6.33
2018-04-24T15:21:45.873Z,6.63
2018-04-24T15:24:13.492Z,6.00
2018-04-24T15:26:41.978Z,7.90
2018-04-24T15:29:10.204Z,5.00
2018-04-24T15:31:40.330Z,8.57
2018-04-24T15:34:07.964Z,5.70
2018-04-24T15:36:35.608Z,4.93
2018-04-24T15:39:03.973Z,5.83
2018-04-24T15:41:32.486Z,6.33
2018-04-24T15:44:00.242Z,9.47
2018-04-24T15:46:28.813Z,5.90
2018-04-24T15:48:56.427Z,6.37
2018-04-24T15:51:25.553Z,5.00
2018-04-24T15:53:53.859Z,5.27
2018-04-24T15:56:22.217Z,5.83
2018-04-24T15:58:49.811Z,5.10
2018-04-24T16:01:18.195Z,3.70
2018-04-24T16:03:45.819Z,3.47
2018-04-24T16:06:13.510Z,5.17
2018-04-24T16:08:41.112Z,5.47
2018-04-24T16:11:08.732Z,3.73
2018-04-24T16:13:37.248Z,4.07
2018-04-24T16:16:05.587Z,4.57
2018-04-24T16:18:33.264Z,3.57
2018-04-24T16:21:01.598Z,5.03
2018-04-24T16:23:30.159Z,4.20
2018-04-24T16:25:57.736Z,5.77
2018-04-24T16:28:25.363Z,3.97
2018-04-24T16:30:54.554Z,3.80
2018-04-24T16:33:22.173Z,4.43
2018-04-24T16:35:49.818Z,5.73
2018-04-24T16:41:11.769Z,4.03
2018-04-24T16:43:40.159Z,4.93
2018-04-24T16:46:07.772Z,4.23
2018-04-24T16:48:36.356Z,5.30
2018-04-24T16:51:03.956Z,7.00
2018-04-24T16:53:31.556Z,4.40
2018-04-24T16:55:59.137Z,4.10
2018-04-24T16:58:26.770Z,7.50
2018-04-24T17:00:54.415Z,4.70
2018-04-24T17:03:25.415Z,4.90
2018-04-24T17:05:53.814Z,5.00
2018-04-24T17:08:21.421Z,6.30
2018-04-24T17:10:48.978Z,6.27
2018-04-24T17:13:16.579Z,5.03
2018-04-24T17:15:44.183Z,5.67
2018-04-24T17:18:11.734Z,6.07
2018-04-24T17:20:39.329Z,4.83
2018-04-24T17:23:06.898Z,7.57
2018-04-24T17:25:34.778Z,7.07
2018-04-24T17:28:02.290Z,10.43
2018-04-24T17:30:29.907Z,6.90
2018-04-24T17:32:58.302Z,6.13
2018-04-24T17:35:26.008Z,6.10
2018-04-24T17:37:53.524Z,6.40
2018-04-24T17:40:21.909Z,9.27
2018-04-24T17:42:50.260Z,7.73
2018-04-24T17:45:17.868Z,8.30
2018-04-24T17:47:46.052Z,7.00
2018-04-24T17:50:20.099Z,7.33
2018-04-24T17:52:47.745Z,7.50
2018-04-24T17:55:15.341Z,7.13
2018-04-24T17:57:43.000Z,9.07
2018-04-24T18:00:10.629Z,8.27
2018-04-24T18:02:38.176Z,8.33
2018-04-24T18:05:05.851Z,7.50
2018-04-24T18:07:33.449Z,7.47
2018-04-24T18:10:02.117Z,9.17
2018-04-24T18:12:29.872Z,7.80
2018-04-24T18:14:57.535Z,8.60
2018-04-24T18:17:25.141Z,7.50
2018-04-24T18:19:53.486Z,6.83
2018-04-24T18:22:21.098Z,7.03
2018-04-24T18:24:49.438Z,8.93
2018-04-24T18:27:18.673Z,9.47
2018-04-24T18:29:47.053Z,7.90
2018-04-24T18:32:15.390Z,8.70
2018-04-24T18:34:43.063Z,8.53
2018-04-24T18:37:10.704Z,9.87
2018-04-24T18:39:38.319Z,9.07
2018-04-24T18:42:05.936Z,9.27
2018-04-24T18:44:33.556Z,11.53
2018-04-24T18:47:01.157Z,12.57
2018-04-24T18:49:28.863Z,10.80
2018-04-24T18:51:56.447Z,10.23
2018-04-24T18:54:24.748Z,11.13
2018-04-24T18:56:52.308Z,10.13
2018-04-24T18:59:19.897Z,12.47
2018-04-24T19:01:47.523Z,10.70
2018-04-24T19:04:15.145Z,11.20
2018-04-24T19:06:42.741Z,11.83
2018-04-24T19:09:10.364Z,13.60
2018-04-24T19:11:38.001Z,11.53
2018-04-24T19:14:11.158Z,9.70
2018-04-24T19:16:38.809Z,11.03
2018-04-24T19:19:11.999Z,9.90
2018-04-24T19:21:39.571Z,10.47
2018-04-24T19:24:07.170Z,9.93
2018-04-24T19:26:34.792Z,11.47
2018-04-24T19:29:02.472Z,8.00
2018-04-24T19:31:35.755Z,8.03
2018-04-24T19:34:04.069Z,6.57
2018-04-24T19:36:31.671Z,7.73
2018-04-24T19:39:04.796Z,5.80
2018-04-24T19:41:37.911Z,6.03
2018-04-24T19:44:05.560Z,5.10
2018-04-24T19:46:33.204Z,3.87
2018-04-24T19:49:06.403Z,4.63
2018-04-24T19:51:33.948Z,5.60
2018-04-24T19:54:02.315Z,4.27
2018-04-24T19:56:29.918Z,4.83
2018-04-24T19:58:57.527Z,5.30
2018-04-24T20:01:25.155Z,4.70
2018-04-24T20:03:53.034Z,5.43
2018-04-24T20:06:20.733Z,5.30
2018-04-24T20:08:48.286Z,3.43
2018-04-24T20:11:15.873Z,3.43
2018-04-24T20:13:44.249Z,3.53
2018-04-24T20:16:12.653Z,3.13
2018-04-24T20:18:40.286Z,3.30
2018-04-24T20:21:09.060Z,2.93
2018-04-24T20:23:36.705Z,4.03
2018-04-24T20:26:04.311Z,3.63
2018-04-24T20:28:31.943Z,4.53
2018-04-24T20:30:59.573Z,3.90
2018-04-24T20:33:27.158Z,3.70
2018-04-24T20:35:55.537Z,4.27
2018-04-24T20:38:23.117Z,4.73
2018-04-24T20:40:50.746Z,4.23
2018-04-24T20:43:19.881Z,4.10
2018-04-24T20:45:47.508Z,6.27
2018-04-24T20:48:15.097Z,4.10
2018-04-24T20:50:42.673Z,4.90
2018-04-24T20:53:10.410Z,4.57
2018-04-24T20:55:37.920Z,5.07
2018-04-24T20:58:05.521Z,4.63
2018-04-24T21:00:33.129Z,4.10
2018-04-24T21:03:01.519Z,4.73
2018-04-24T21:05:29.175Z,5.57
2018-04-24T21:07:57.588Z,5.73
2018-04-24T21:10:25.160Z,5.03
2018-04-24T21:12:52.767Z,6.93
2018-04-24T21:15:20.382Z,5.83
2018-04-24T21:17:47.982Z,6.07
2018-04-24T21:20:15.569Z,5.77
2018-04-24T21:22:43.914Z,6.83
2018-04-24T21:25:11.551Z,5.33
2018-04-24T21:27:39.966Z,5.47
2018-04-24T21:30:07.602Z,6.20
2018-04-24T21:32:35.169Z,6.63
2018-04-24T21:35:02.840Z,6.10
2018-04-24T21:37:30.482Z,6.60
2018-04-24T21:39:58.098Z,6.30
2018-04-24T21:42:25.758Z,6.70
2018-04-24T21:44:54.147Z,8.30
2018-04-24T21:47:21.758Z,7.30
2018-04-24T21:49:56.413Z,7.47
2018-04-24T21:52:24.037Z,7.63
2018-04-24T21:54:51.661Z,8.90
2018-04-24T21:57:19.255Z,7.17
2018-04-24T21:59:46.929Z,8.87
2018-04-24T22:02:14.548Z,7.83
2018-04-24T22:04:42.165Z,7.00
2018-04-24T22:07:09.748Z,7.70
2018-04-24T22:09:37.394Z,7.43
2018-04-24T22:12:04.944Z,8.40
2018-04-24T22:14:32.479Z,6.07
2018-04-24T22:17:00.844Z,9.80
2018-04-24T22:19:29.235Z,6.97
2018-04-24T22:21:56.805Z,7.50
2018-04-24T22:24:24.385Z,6.70
2018-04-24T22:26:51.925Z,8.80
2018-04-24T22:29:19.527Z,7.60
2018-04-24T22:31:47.141Z,7.43
2018-04-24T22:34:15.516Z,9.37
2018-04-24T22:36:44.077Z,7.23
2018-04-24T22:39:11.679Z,9.10
2018-04-24T22:41:39.235Z,7.37
2018-04-24T22:44:06.809Z,7.70
2018-04-24T22:46:34.342Z,5.63
2018-04-24T22:49:02.721Z,6.50
2018-04-24T22:51:30.333Z,7.33
2018-04-24T22:53:58.022Z,8.10
2018-04-24T22:56:27.256Z,9.90
2018-04-24T22:58:55.615Z,7.37
2018-04-24T23:01:23.966Z,6.93
2018-04-24T23:03:51.596Z,8.30
2018-04-24T23:06:19.214Z,7.10
2018-04-24T23:08:47.816Z,6.13
2018-04-24T23:11:27.247Z,8.50
2018-04-24T23:14:06.705Z,6.23
2018-04-24T23:16:46.459Z,7.83
2018-04-24T23:19:25.880Z,7.30
2018-04-24T23:21:52.972Z,5.30
2018-04-24T23:24:21.331Z,6.23
2018-04-24T23:26:48.937Z,6.33
2018-04-24T23:29:17.935Z,8.47
2018-04-24T23:31:45.692Z,6.80
2018-04-24T23:34:13.362Z,4.37
2018-04-24T23:36:40.912Z,5.70
2018-04-24T23:39:09.311Z,4.27
2018-04-24T23:41:37.066Z,6.47
2018-04-24T23:44:04.736Z,5.03
2018-04-24T23:46:32.391Z,6.63
2018-04-24T23:48:59.963Z,5.10
2018-04-24T23:51:27.580Z,5.57
2018-04-24T23:53:55.222Z,4.77
2018-04-24T23:56:22.842Z,5.03
2018-04-24T23:58:50.502Z,4.63
